Time,TemperatureF,DewpointF,PressureIn,WindDirection,WindDirectionDegrees,WindSpeedMPH,WindSpeedGustMPH,Humidity,HourlyPrecipIn,Conditions,Clouds,dailyrainin,SoftwareType,DateUTC
2013-12-16 00:01:00,18.5,13.0,29.48,WNW,292,0.0,0.0,79,0.00,,,0.00,WUHU21623XXSP,2013-12-16 05:01:00,
2013-12-16 00:02:00,18.7,13.2,29.48,WNW,292,0.0,0.0,79,0.00,,,0.00,WUHU21623XXSP,2013-12-16 05:02:00,
2013-12-16 00:07:00,18.7,13.2,29.48,WNW,292,0.0,0.0,79,0.00,,,0.00,WUHU21623XXSP,2013-12-16 05:07:00,
2013-12-16 00:12:00,19.0,13.5,29.49,WNW,292,0.0,0.0,79,0.00,,,0.00,WUHU21623XXSP,2013-12-16 05:12:00,
2013-12-16 00:17:00,19.2,13.7,29.48,WNW,292,0.0,0.0,79,0.00,,,0.00,WUHU21623XXSP,2013-12-16 05:17:00,
2013-12-16 00:22:00,19.4,13.9,29.48,WNW,292,0.0,0.0,79,0.00,,,0.00,WUHU21623XXSP,2013-12-16 05:22:00,
2013-12-16 00:27:00,19.6,14.1,29.48,WNW,292,0.0,0.0,79,0.00,,,0.00,WUHU21623XXSP,2013-12-16 05:27:00,
2013-12-16 00:32:00,19.6,14.1,29.48,WNW,292,0.0,0.0,79,0.00,,,0.00,WUHU21623XXSP,2013-12-16 05:32:00,
2013-12-16 00:37:00,19.8,14.2,29.49,WNW,292,0.0,0.0,79,0.00,,,0.00,WUHU21623XXSP,2013-12-16 05:37:00,
2013-12-16 00:42:00,19.9,14.4,29.48,WNW,292,0.0,0.0,79,0.00,,,0.00,WUHU21623XXSP,2013-12-16 05:42:00,
2013-12-16 00:47:00,20.3,14.6,29.48,WNW,292,0.0,0.0,79,0.00,,,0.00,WUHU21623XXSP,2013-12-16 05:47:00,
2013-12-16 00:52:00,20.5,15.0,29.49,WNW,292,0.0,0.0,79,0.00,,,0.00,WUHU21623XXSP,2013-12-16 05:52:00,
2013-12-16 00:57:00,20.8,15.3,29.48,WNW,292,0.0,0.0,79,0.00,,,0.00,WUHU21623XXSP,2013-12-16 05:57:00,
2013-12-16 01:02:00,21.0,15.5,29.49,WNW,292,0.0,0.0,79,0.00,,,0.00,WUHU21623XXSP,2013-12-16 06:02:00,
2013-12-16 01:07:00,21.2,15.5,29.48,WNW,292,0.0,0.0,79,0.00,,,0.00,WUHU21623XXSP,2013-12-16 06:07:00,
2013-12-16 01:12:00,21.4,15.9,29.48,WNW,292,0.0,0.0,79,0.00,,,0.00,WUHU21623XXSP,2013-12-16 06:12:00,
2013-12-16 01:17:00,21.4,15.9,29.48,WNW,292,0.0,0.0,79,0.00,,,0.00,WUHU21623XXSP,2013-12-16 06:17:00,
2013-12-16 01:22:00,21.6,16.0,29.49,WNW,292,0.0,0.0,79,0.00,,,0.00,WUHU21623XXSP,2013-12-16 06:22:00,
2013-12-16 01:26:00,21.6,16.0,29.48,WNW,292,0.0,0.0,79,0.00,,,0.00,WUHU21623XXSP,2013-12-16 06:26:00,
2013-12-16 01:31:00,21.6,16.0,29.49,WNW,292,0.0,0.0,79,0.00,,,0.00,WUHU21623XXSP,2013-12-16 06:31:00,
2013-12-16 01:36:00,21.4,15.9,29.49,WNW,292,0.0,0.0,79,0.00,,,0.00,WUHU21623XXSP,2013-12-16 06:36:00,
2013-12-16 01:41:00,21.0,15.7,29.49,WNW,292,0.0,0.0,79,0.00,,,0.00,WUHU21623XXSP,2013-12-16 06:41:00,
2013-12-16 01:46:00,21.0,15.5,29.49,WNW,292,0.0,0.0,79,0.00,,,0.00,WUHU21623XXSP,2013-12-16 06:46:00,
2013-12-16 01:51:00,20.8,15.3,29.49,WNW,292,0.0,0.0,79,0.00,,,0.00,WUHU21623XXSP,2013-12-16 06:51:00,
2013-12-16 01:56:00,20.5,15.1,29.49,WNW,292,0.0,0.0,79,0.00,,,0.00,WUHU21623XXSP,2013-12-16 06:56:00,
2013-12-16 02:01:00,20.1,14.6,29.50,WNW,292,0.0,0.0,79,0.00,,,0.00,WUHU21623XXSP,2013-12-16 07:01:00,
2013-12-16 02:06:00,19.8,14.2,29.50,WNW,292,0.0,0.0,79,0.00,,,0.00,WUHU21623XXSP,2013-12-16 07:06:00,
2013-12-16 02:11:00,19.6,14.1,29.50,WNW,292,0.0,0.0,79,0.00,,,0.00,WUHU21623XXSP,2013-12-16 07:11:00,
2013-12-16 02:16:00,19.2,13.7,29.50,WNW,292,0.0,0.0,79,0.00,,,0.00,WUHU21623XXSP,2013-12-16 07:16:00,
2013-12-16 02:21:00,19.0,13.7,29.51,WNW,292,0.0,0.0,79,0.00,,,0.00,WUHU21623XXSP,2013-12-16 07:21:00,
2013-12-16 02:26:00,18.9,13.3,29.51,WNW,292,0.0,0.0,79,0.00,,,0.00,WUHU21623XXSP,2013-12-16 07:26:00,
2013-12-16 02:31:00,18.7,13.2,29.51,WNW,292,0.0,0.0,79,0.00,,,0.00,WUHU21623XXSP,2013-12-16 07:31:00,
2013-12-16 02:36:00,18.7,13.2,29.51,WNW,292,0.0,0.0,79,0.00,,,0.00,WUHU21623XXSP,2013-12-16 07:36:00,
2013-12-16 02:41:00,18.5,13.0,29.51,WNW,292,0.0,0.0,79,0.00,,,0.00,WUHU21623XXSP,2013-12-16 07:41:00,
2013-12-16 02:46:00,18.3,12.8,29.51,WNW,292,0.0,0.0,79,0.00,,,0.00,WUHU21623XXSP,2013-12-16 07:46:00,
2013-12-16 02:51:00,18.1,12.6,29.51,WNW,292,0.0,0.0,79,0.00,,,0.00,WUHU21623XXSP,2013-12-16 07:51:00,
2013-12-16 02:56:00,18.0,12.6,29.51,WNW,292,0.0,0.0,79,0.00,,,0.00,WUHU21623XXSP,2013-12-16 07:56:00,
2013-12-16 03:01:00,18.0,12.4,29.52,WNW,292,0.0,0.0,79,0.00,,,0.00,WUHU21623XXSP,2013-12-16 08:01:00,
2013-12-16 03:06:00,17.8,12.3,29.52,WNW,292,0.0,0.0,79,0.00,,,0.00,WUHU21623XXSP,2013-12-16 08:06:00,
2013-12-16 03:11:00,17.6,12.1,29.53,WNW,292,0.0,0.0,79,0.00,,,0.00,WUHU21623XXSP,2013-12-16 08:11:00,
2013-12-16 03:16:00,17.4,11.9,29.53,WNW,292,0.0,0.0,79,0.00,,,0.00,WUHU21623XXSP,2013-12-16 08:16:00,
2013-12-16 03:21:00,17.4,11.9,29.53,WNW,292,0.0,0.0,79,0.00,,,0.00,WUHU21623XXSP,2013-12-16 08:21:00,
2013-12-16 03:26:00,17.6,12.1,29.53,WNW,292,0.0,0.0,79,0.00,,,0.00,WUHU21623XXSP,2013-12-16 08:26:00,
2013-12-16 03:31:00,17.8,12.1,29.53,WNW,292,0.0,0.0,79,0.00,,,0.00,WUHU21623XXSP,2013-12-16 08:31:00,
2013-12-16 03:36:00,17.8,12.6,29.53,WNW,292,0.0,0.0,80,0.00,,,0.00,WUHU21623XXSP,2013-12-16 08:36:00,
2013-12-16 03:41:00,17.8,12.6,29.53,WNW,292,0.0,0.0,80,0.00,,,0.00,WUHU21623XXSP,2013-12-16 08:41:00,
2013-12-16 03:46:00,17.8,12.6,29.52,WNW,292,0.0,0.0,80,0.00,,,0.00,WUHU21623XXSP,2013-12-16 08:46:00,
2013-12-16 03:51:00,18.0,12.7,29.53,WNW,292,0.0,0.0,80,0.00,,,0.00,WUHU21623XXSP,2013-12-16 08:51:00,
2013-12-16 03:56:00,18.0,12.7,29.53,WNW,292,0.0,0.0,80,0.00,,,0.00,WUHU21623XXSP,2013-12-16 08:56:00,
2013-12-16 04:01:00,18.0,12.7,29.53,WNW,292,0.0,0.0,80,0.00,,,0.00,WUHU21623XXSP,2013-12-16 09:01:00,
2013-12-16 04:06:00,17.8,12.6,29.54,WNW,292,0.0,0.0,80,0.00,,,0.00,WUHU21623XXSP,2013-12-16 09:06:00,
2013-12-16 04:11:00,17.8,12.6,29.54,WNW,292,0.0,0.0,80,0.00,,,0.00,WUHU21623XXSP,2013-12-16 09:11:00,
2013-12-16 04:16:00,17.8,12.6,29.54,WNW,292,0.0,0.0,80,0.00,,,0.00,WUHU21623XXSP,2013-12-16 09:16:00,
2013-12-16 04:21:00,17.8,12.6,29.54,WNW,292,0.0,0.0,80,0.00,,,0.00,WUHU21623XXSP,2013-12-16 09:21:00,
2013-12-16 04:26:00,17.8,12.6,29.55,WNW,292,0.0,0.0,80,0.00,,,0.00,WUHU21623XXSP,2013-12-16 09:26:00,
2013-12-16 04:31:00,18.0,12.7,29.55,WNW,292,0.0,0.0,80,0.00,,,0.00,WUHU21623XXSP,2013-12-16 09:31:00,
2013-12-16 04:36:00,18.0,12.7,29.55,WNW,292,0.0,0.0,80,0.00,,,0.00,WUHU21623XXSP,2013-12-16 09:36:00,
2013-12-16 04:41:00,18.0,12.7,29.55,WNW,292,0.0,0.0,80,0.00,,,0.00,WUHU21623XXSP,2013-12-16 09:41:00,
2013-12-16 04:46:00,17.8,12.6,29.54,WNW,292,0.0,0.0,80,0.00,,,0.00,WUHU21623XXSP,2013-12-16 09:46:00,
2013-12-16 04:51:00,17.4,12.2,29.55,WNW,292,0.0,0.0,80,0.00,,,0.00,WUHU21623XXSP,2013-12-16 09:51:00,
2013-12-16 04:56:00,17.4,12.2,29.55,WNW,292,0.0,0.0,80,0.00,,,0.00,WUHU21623XXSP,2013-12-16 09:56:00,
2013-12-16 05:01:00,17.8,12.8,29.55,West,270,0.0,0.0,81,0.00,,,0.00,WUHU21623XXSP,2013-12-16 10:01:00,
2013-12-16 05:06:00,18.5,13.4,29.55,WNW,292,0.0,0.0,81,0.00,,,0.00,WUHU21623XXSP,2013-12-16 10:06:00,
2013-12-16 05:11:00,19.0,14.1,29.55,WNW,292,0.0,0.0,81,0.00,,,0.00,WUHU21623XXSP,2013-12-16 10:11:00,
2013-12-16 05:16:00,19.6,14.6,29.56,WNW,292,0.0,0.0,81,0.00,,,0.00,WUHU21623XXSP,2013-12-16 10:16:00,
2013-12-16 05:21:00,20.5,15.2,29.56,WNW,292,0.0,0.0,80,0.00,,,0.00,WUHU21623XXSP,2013-12-16 10:21:00,
2013-12-16 05:26:00,20.8,15.3,29.56,WNW,292,0.0,0.0,80,0.00,,,0.00,WUHU21623XXSP,2013-12-16 10:26:00,
2013-12-16 05:31:00,20.8,15.3,29.56,WNW,292,0.0,0.0,79,0.00,,,0.00,WUHU21623XXSP,2013-12-16 10:31:00,
2013-12-16 05:36:00,20.8,15.3,29.57,WNW,292,0.0,0.0,79,0.00,,,0.00,WUHU21623XXSP,2013-12-16 10:36:00,
2013-12-16 05:41:00,20.8,15.0,29.58,WNW,292,0.0,0.0,78,0.00,,,0.00,WUHU21623XXSP,2013-12-16 10:41:00,
2013-12-16 05:46:00,20.8,15.0,29.57,WNW,292,0.0,0.0,78,0.00,,,0.00,WUHU21623XXSP,2013-12-16 10:46:00,
2013-12-16 05:51:00,21.0,14.9,29.58,WNW,292,0.0,0.0,77,0.00,,,0.00,WUHU21623XXSP,2013-12-16 10:51:00,
2013-12-16 05:56:00,20.8,14.4,29.58,WNW,292,0.0,0.0,76,0.00,,,0.00,WUHU21623XXSP,2013-12-16 10:56:00,
2013-12-16 06:01:00,20.8,14.4,29.58,WNW,292,0.0,0.0,76,0.00,,,0.00,WUHU21623XXSP,2013-12-16 11:01:00,
2013-12-16 06:06:00,20.8,14.1,29.58,WNW,292,0.0,0.0,75,0.00,,,0.00,WUHU21623XXSP,2013-12-16 11:06:00,
2013-12-16 06:11:00,20.5,13.7,29.58,WNW,292,0.0,0.0,75,0.00,,,0.00,WUHU21623XXSP,2013-12-16 11:11:00,
2013-12-16 06:16:00,20.8,13.8,29.59,NW,315,0.0,0.0,74,0.00,,,0.00,WUHU21623XXSP,2013-12-16 11:16:00,
2013-12-16 06:21:00,20.8,13.5,29.60,WNW,292,0.0,0.0,73,0.00,,,0.00,WUHU21623XXSP,2013-12-16 11:21:00,
2013-12-16 06:26:00,21.0,13.7,29.60,West,270,0.0,0.0,73,0.00,,,0.00,WUHU21623XXSP,2013-12-16 11:26:00,
2013-12-16 06:31:00,21.0,13.4,29.60,West,270,0.0,0.0,72,0.00,,,0.00,WUHU21623XXSP,2013-12-16 11:31:00,
2013-12-16 06:36:00,21.4,13.4,29.60,West,270,0.0,0.0,71,0.00,,,0.00,WUHU21623XXSP,2013-12-16 11:36:00,
2013-12-16 06:41:00,21.4,13.1,29.61,West,270,0.0,0.0,70,0.00,,,0.00,WUHU21623XXSP,2013-12-16 11:41:00,
2013-12-16 06:46:00,21.4,12.7,29.61,West,270,0.0,0.0,69,0.00,,,0.00,WUHU21623XXSP,2013-12-16 11:46:00,
2013-12-16 06:51:00,21.6,12.6,29.61,West,270,0.0,0.0,68,0.00,,,0.00,WUHU21623XXSP,2013-12-16 11:51:00,
2013-12-16 06:56:00,21.4,12.4,29.62,NW,315,0.0,0.0,68,0.00,,,0.00,WUHU21623XXSP,2013-12-16 11:56:00,
2013-12-16 07:01:00,21.4,12.1,29.62,West,270,0.0,0.0,67,0.00,,,0.00,WUHU21623XXSP,2013-12-16 12:01:00,
2013-12-16 07:06:00,21.4,11.7,29.62,WNW,292,0.0,0.0,66,0.00,,,0.00,WUHU21623XXSP,2013-12-16 12:06:00,
2013-12-16 07:11:00,21.4,11.7,29.62,WNW,292,0.0,0.0,66,0.00,,,0.00,WUHU21623XXSP,2013-12-16 12:11:00,
2013-12-16 07:16:00,21.4,11.7,29.62,WSW,247,0.0,0.0,66,0.00,,,0.00,WUHU21623XXSP,2013-12-16 12:16:00,
2013-12-16 07:21:00,21.2,11.7,29.63,WSW,247,0.0,0.0,66,0.00,,,0.00,WUHU21623XXSP,2013-12-16 12:21:00,
2013-12-16 07:26:00,21.0,11.4,29.63,West,270,0.0,0.0,66,0.00,,,0.00,WUHU21623XXSP,2013-12-16 12:26:00,
2013-12-16 07:31:00,21.0,11.4,29.63,West,270,0.0,0.0,66,0.00,,,0.00,WUHU21623XXSP,2013-12-16 12:31:00,
2013-12-16 07:36:00,20.8,11.2,29.64,West,270,0.0,0.0,66,0.00,,,0.00,WUHU21623XXSP,2013-12-16 12:36:00,
2013-12-16 07:41:00,20.8,11.2,29.63,West,270,0.0,0.0,66,0.00,,,0.00,WUHU21623XXSP,2013-12-16 12:41:00,
2013-12-16 07:46:00,20.8,11.2,29.63,West,270,0.0,0.0,66,0.00,,,0.00,WUHU21623XXSP,2013-12-16 12:46:00,
2013-12-16 07:51:00,20.8,11.2,29.64,West,270,0.0,0.0,66,0.00,,,0.00,WUHU21623XXSP,2013-12-16 12:51:00,
2013-12-16 07:56:00,20.8,11.2,29.65,West,270,0.0,0.0,66,0.00,,,0.00,WUHU21623XXSP,2013-12-16 12:56:00,
2013-12-16 08:01:00,20.8,10.8,29.64,WNW,292,0.0,0.0,65,0.00,,,0.00,WUHU21623XXSP,2013-12-16 13:01:00,
2013-12-16 08:06:00,21.0,11.4,29.65,WNW,292,0.0,0.0,65,0.00,,,0.00,WUHU21623XXSP,2013-12-16 13:06:00,
2013-12-16 08:11:00,21.4,11.4,29.65,NW,315,0.0,0.0,65,0.00,,,0.00,WUHU21623XXSP,2013-12-16 13:11:00,
2013-12-16 08:16:00,21.4,11.4,29.65,NW,315,0.0,0.0,65,0.00,,,0.00,WUHU21623XXSP,2013-12-16 13:16:00,
2013-12-16 08:21:00,21.7,11.4,29.66,WSW,247,0.0,0.0,64,0.00,,,0.00,WUHU21623XXSP,2013-12-16 13:21:00,
2013-12-16 08:26:00,21.9,11.5,29.66,WSW,247,0.0,0.0,64,0.00,,,0.00,WUHU21623XXSP,2013-12-16 13:26:00,
2013-12-16 08:31:00,22.1,11.7,29.66,West,270,0.0,0.0,64,0.00,,,0.00,WUHU21623XXSP,2013-12-16 13:31:00,
2013-12-16 08:36:00,22.5,11.7,29.67,WSW,247,0.0,0.0,63,0.00,,,0.00,WUHU21623XXSP,2013-12-16 13:36:00,
2013-12-16 08:41:00,22.6,11.9,29.67,SW,225,0.0,0.0,63,0.00,,,0.00,WUHU21623XXSP,2013-12-16 13:41:00,
2013-12-16 08:46:00,22.8,11.7,29.67,West,270,0.0,0.0,62,0.00,,,0.00,WUHU21623XXSP,2013-12-16 13:46:00,
2013-12-16 08:51:00,23.0,11.8,29.67,West,270,0.0,0.0,62,0.00,,,0.00,WUHU21623XXSP,2013-12-16 13:51:00,
2013-12-16 08:56:00,23.2,12.0,29.67,West,270,0.0,0.0,62,0.00,,,0.00,WUHU21623XXSP,2013-12-16 13:56:00,
2013-12-16 09:01:00,23.4,11.5,29.67,West,270,0.0,0.0,60,0.00,,,0.00,WUHU21623XXSP,2013-12-16 14:01:00,
2013-12-16 09:06:00,23.5,11.7,29.68,WNW,292,0.0,0.0,60,0.00,,,0.00,WUHU21623XXSP,2013-12-16 14:06:00,
2013-12-16 09:11:00,23.7,11.8,29.68,West,270,0.0,0.0,60,0.00,,,0.00,WUHU21623XXSP,2013-12-16 14:11:00,
2013-12-16 09:16:00,23.9,11.6,29.68,WSW,247,0.0,0.0,59,0.00,,,0.00,WUHU21623XXSP,2013-12-16 14:16:00,
2013-12-16 09:21:00,24.1,11.8,29.68,West,270,0.0,0.0,59,0.00,,,0.00,WUHU21623XXSP,2013-12-16 14:21:00,
2013-12-16 09:26:00,24.4,12.1,29.69,West,270,0.0,0.0,59,0.00,,,0.00,WUHU21623XXSP,2013-12-16 14:26:00,
2013-12-16 09:31:00,24.4,12.1,29.68,West,270,0.0,0.0,58,0.00,,,0.00,WUHU21623XXSP,2013-12-16 14:31:00,
2013-12-16 09:36:00,24.6,11.5,29.69,WSW,247,0.0,0.0,57,0.00,,,0.00,WUHU21623XXSP,2013-12-16 14:36:00,
2013-12-16 09:41:00,25.0,11.4,29.69,SW,225,0.0,0.0,56,0.00,,,0.00,WUHU21623XXSP,2013-12-16 14:41:00,
2013-12-16 09:46:00,25.0,11.4,29.69,WSW,247,0.0,0.0,56,0.00,,,0.00,WUHU21623XXSP,2013-12-16 14:46:00,
2013-12-16 09:51:00,25.2,11.6,29.69,WSW,247,0.0,0.0,56,0.00,,,0.00,WUHU21623XXSP,2013-12-16 14:51:00,
2013-12-16 09:56:00,25.3,11.8,29.70,West,270,0.0,0.0,56,0.00,,,0.00,WUHU21623XXSP,2013-12-16 14:56:00,
2013-12-16 10:01:00,25.5,11.9,29.69,NW,315,0.0,0.0,56,0.00,,,0.00,WUHU21623XXSP,2013-12-16 15:01:00,
2013-12-16 10:06:00,25.5,11.9,29.70,West,270,0.0,0.0,56,0.00,,,0.00,WUHU21623XXSP,2013-12-16 15:06:00,
2013-12-16 10:11:00,25.7,12.1,29.70,WNW,292,0.0,0.0,56,0.00,,,0.00,WUHU21623XXSP,2013-12-16 15:11:00,
2013-12-16 10:16:00,25.9,12.2,29.70,WSW,247,0.0,0.0,56,0.00,,,0.00,WUHU21623XXSP,2013-12-16 15:16:00,
2013-12-16 10:21:00,26.1,11.6,29.71,WNW,292,0.0,0.0,54,0.00,,,0.00,WUHU21623XXSP,2013-12-16 15:21:00,
2013-12-16 10:26:00,25.9,11.6,29.70,WNW,292,0.0,0.0,53,0.00,,,0.00,WUHU21623XXSP,2013-12-16 15:26:00,
2013-12-16 10:31:00,25.9,11.0,29.70,SW,225,0.0,0.0,53,0.00,,,0.00,WUHU21623XXSP,2013-12-16 15:31:00,
2013-12-16 10:36:00,26.1,11.2,29.70,WSW,247,0.0,0.0,53,0.00,,,0.00,WUHU21623XXSP,2013-12-16 15:36:00,
2013-12-16 10:41:00,26.1,11.2,29.69,West,270,0.0,0.0,53,0.00,,,0.00,WUHU21623XXSP,2013-12-16 15:41:00,
2013-12-16 10:46:00,26.2,11.3,29.69,SW,225,0.0,0.0,53,0.00,,,0.00,WUHU21623XXSP,2013-12-16 15:46:00,
2013-12-16 10:51:00,26.2,10.9,29.69,NNW,337,0.0,0.0,52,0.00,,,0.00,WUHU21623XXSP,2013-12-16 15:51:00,
2013-12-16 10:56:00,26.4,11.5,29.68,West,270,0.0,0.0,53,0.00,,,0.00,WUHU21623XXSP,2013-12-16 15:56:00,
2013-12-16 11:01:00,26.8,11.8,29.68,WSW,247,0.0,0.0,53,0.00,,,0.00,WUHU21623XXSP,2013-12-16 16:01:00,
2013-12-16 11:06:00,27.0,11.6,29.68,WNW,292,0.0,0.0,52,0.00,,,0.00,WUHU21623XXSP,2013-12-16 16:06:00,
2013-12-16 11:11:00,27.0,11.2,29.68,WSW,247,1.6,1.6,51,0.00,,,0.00,WUHU21623XXSP,2013-12-16 16:11:00,
2013-12-16 11:16:00,27.1,11.4,29.68,NW,315,0.0,1.6,51,0.08,,,0.00,WUHU21623XXSP,2013-12-16 16:16:00,
2013-12-16 11:21:00,27.1,11.4,29.68,South,180,6.9,10.3,51,0.12,,,0.08,WUHU21623XXSP,2013-12-16 16:21:00,
2013-12-16 11:26:00,27.0,10.8,29.69,West,270,6.3,10.3,50,0.12,,,0.12,WUHU21623XXSP,2013-12-16 16:26:00,
2013-12-16 11:31:00,27.1,10.4,29.69,NW,315,11.2,11.2,49,0.14,,,0.14,WUHU21623XXSP,2013-12-16 16:31:00,
2013-12-16 11:36:00,27.0,10.3,29.69,SW,225,8.5,11.2,49,0.14,,,0.14,WUHU21623XXSP,2013-12-16 16:36:00,
2013-12-16 11:41:00,26.8,10.1,29.69,West,270,6.3,8.5,49,0.14,,,0.14,WUHU21623XXSP,2013-12-16 16:41:00,
2013-12-16 11:46:00,27.0,9.8,29.69,NE,45,1.6,8.5,48,0.14,,,0.14,WUHU21623XXSP,2013-12-16 16:46:00,
2013-12-16 11:51:00,27.1,9.9,29.70,North,0,0.0,7.2,48,0.14,,,0.14,WUHU21623XXSP,2013-12-16 16:51:00,
2013-12-16 11:56:00,27.1,10.4,29.69,WSW,247,7.6,7.6,49,0.14,,,0.14,WUHU21623XXSP,2013-12-16 16:56:00,
2013-12-16 12:01:00,27.1,10.4,29.69,WSW,247,5.6,7.6,49,0.14,,,0.14,WUHU21623XXSP,2013-12-16 17:01:00,
2013-12-16 12:02:00,27.3,10.1,29.69,WNW,292,5.4,7.6,48,0.14,,,0.14,WUHU21623XXSP,2013-12-16 17:02:00,
2013-12-16 12:07:00,27.3,10.1,29.69,West,270,13.0,13.0,48,0.14,,,0.14,WUHU21623XXSP,2013-12-16 17:07:00,
2013-12-16 12:12:00,27.7,10.5,29.69,West,270,6.7,13.0,48,0.14,,,0.14,WUHU21623XXSP,2013-12-16 17:12:00,
2013-12-16 12:17:00,27.7,10.5,29.69,West,270,1.8,8.3,48,0.06,,,0.14,WUHU21623XXSP,2013-12-16 17:17:00,
2013-12-16 12:22:00,28.0,10.8,29.69,WNW,292,1.3,6.7,48,0.02,,,0.14,WUHU21623XXSP,2013-12-16 17:22:00,
2013-12-16 12:27:00,28.2,11.0,29.69,West,270,0.0,6.7,48,0.00,,,0.14,WUHU21623XXSP,2013-12-16 17:27:00,
2013-12-16 12:32:00,28.2,10.5,29.70,West,270,3.6,9.8,47,0.00,,,0.14,WUHU21623XXSP,2013-12-16 17:32:00,
2013-12-16 12:37:00,28.2,11.0,29.70,WNW,292,6.5,9.8,48,0.00,,,0.14,WUHU21623XXSP,2013-12-16 17:37:00,
2013-12-16 12:42:00,28.6,11.4,29.70,WSW,247,3.8,6.7,48,0.00,,,0.14,WUHU21623XXSP,2013-12-16 17:42:00,
2013-12-16 12:47:00,28.8,11.0,29.70,WNW,292,6.9,7.4,47,0.00,,,0.14,WUHU21623XXSP,2013-12-16 17:47:00,
2013-12-16 12:52:00,28.8,11.0,29.69,West,270,4.5,7.4,47,0.00,,,0.14,WUHU21623XXSP,2013-12-16 17:52:00,
2013-12-16 12:57:00,28.9,10.7,29.70,NNW,337,6.7,6.7,46,0.00,,,0.14,WUHU21623XXSP,2013-12-16 17:57:00,
2013-12-16 13:02:00,28.6,10.3,29.70,WSW,247,2.2,8.3,46,0.00,,,0.14,WUHU21623XXSP,2013-12-16 18:02:00,
2013-12-16 13:07:00,28.6,10.3,29.69,NW,315,8.1,8.7,46,0.00,,,0.14,WUHU21623XXSP,2013-12-16 18:07:00,
2013-12-16 13:12:00,28.4,10.2,29.70,West,270,10.3,10.3,46,0.00,,,0.14,WUHU21623XXSP,2013-12-16 18:12:00,
2013-12-16 13:17:00,28.2,10.0,29.70,WSW,247,5.1,10.3,46,0.00,,,0.14,WUHU21623XXSP,2013-12-16 18:17:00,
2013-12-16 13:22:00,28.2,10.0,29.70,West,270,1.1,5.1,47,0.00,,,0.14,WUHU21623XXSP,2013-12-16 18:22:00,
2013-12-16 13:27:00,28.2,10.5,29.70,West,270,6.3,6.3,47,0.00,,,0.14,WUHU21623XXSP,2013-12-16 18:27:00,
2013-12-16 13:32:00,28.2,10.0,29.70,NW,315,5.1,6.3,46,0.00,,,0.14,WUHU21623XXSP,2013-12-16 18:32:00,
2013-12-16 13:37:00,28.2,10.5,29.70,WSW,247,0.0,6.3,47,0.00,,,0.14,WUHU21623XXSP,2013-12-16 18:37:00,
2013-12-16 13:42:00,28.6,10.3,29.70,WNW,292,3.8,10.1,46,0.00,,,0.14,WUHU21623XXSP,2013-12-16 18:42:00,
2013-12-16 13:47:00,28.6,10.3,29.71,West,270,0.0,10.1,46,0.00,,,0.14,WUHU21623XXSP,2013-12-16 18:47:00,
2013-12-16 13:52:00,28.6,10.8,29.71,NW,315,7.4,7.4,47,0.00,,,0.14,WUHU21623XXSP,2013-12-16 18:52:00,
2013-12-16 13:57:00,28.2,10.5,29.71,NW,315,7.4,7.4,47,0.00,,,0.14,WUHU21623XXSP,2013-12-16 18:57:00,
2013-12-16 14:02:00,28.0,10.3,29.71,West,270,0.0,7.4,47,0.00,,,0.14,WUHU21623XXSP,2013-12-16 19:02:00,
2013-12-16 14:07:00,27.7,10.0,29.71,West,270,3.6,5.1,47,0.00,,,0.14,WUHU21623XXSP,2013-12-16 19:07:00,
2013-12-16 14:12:00,27.5,10.3,29.71,NW,315,10.3,10.3,48,0.00,,,0.14,WUHU21623XXSP,2013-12-16 19:12:00,
2013-12-16 14:17:00,27.3,9.6,29.72,WNW,292,7.8,10.3,47,0.00,,,0.14,WUHU21623XXSP,2013-12-16 19:17:00,
2013-12-16 14:22:00,27.0,9.5,29.72,WSW,247,1.8,7.8,48,0.00,,,0.14,WUHU21623XXSP,2013-12-16 19:22:00,
2013-12-16 14:27:00,27.0,9.8,29.72,WSW,247,7.4,7.4,48,0.00,,,0.14,WUHU21623XXSP,2013-12-16 19:27:00,
2013-12-16 14:32:00,27.1,9.9,29.72,NNW,337,0.0,7.4,48,0.00,,,0.14,WUHU21623XXSP,2013-12-16 19:32:00,
2013-12-16 14:37:00,27.1,9.9,29.73,WSW,247,2.5,6.5,48,0.00,,,0.14,WUHU21623XXSP,2013-12-16 19:37:00,
2013-12-16 14:42:00,27.1,9.9,29.73,West,270,0.0,6.5,48,0.00,,,0.14,WUHU21623XXSP,2013-12-16 19:42:00,
2013-12-16 14:47:00,27.1,9.9,29.73,SW,225,0.0,4.7,48,0.00,,,0.14,WUHU21623XXSP,2013-12-16 19:47:00,
2013-12-16 14:52:00,27.1,9.9,29.73,WNW,292,4.9,4.9,48,0.00,,,0.14,WUHU21623XXSP,2013-12-16 19:52:00,
2013-12-16 14:57:00,27.1,9.9,29.74,NNW,337,5.8,5.8,48,0.00,,,0.14,WUHU21623XXSP,2013-12-16 19:57:00,
2013-12-16 15:02:00,27.1,10.4,29.74,West,270,0.0,5.8,49,0.00,,,0.14,WUHU21623XXSP,2013-12-16 20:02:00,
2013-12-16 15:07:00,27.1,9.9,29.74,WSW,247,0.0,0.0,48,0.00,,,0.14,WUHU21623XXSP,2013-12-16 20:07:00,
2013-12-16 15:12:00,26.8,10.1,29.74,West,270,0.0,4.9,49,0.00,,,0.14,WUHU21623XXSP,2013-12-16 20:12:00,
2013-12-16 15:17:00,26.4,9.8,29.75,West,270,0.0,4.9,49,0.00,,,0.14,WUHU21623XXSP,2013-12-16 20:17:00,
2013-12-16 15:22:00,26.2,9.6,29.76,West,270,2.0,2.0,49,0.00,,,0.14,WUHU21623XXSP,2013-12-16 20:22:00,
2013-12-16 15:27:00,25.9,9.3,29.76,WNW,292,7.2,7.2,49,0.00,,,0.14,WUHU21623XXSP,2013-12-16 20:27:00,
2013-12-16 15:32:00,25.5,8.9,29.76,NW,315,0.2,7.2,49,0.00,,,0.14,WUHU21623XXSP,2013-12-16 20:32:00,
2013-12-16 15:37:00,25.5,8.9,29.76,West,270,0.0,7.2,49,0.00,,,0.14,WUHU21623XXSP,2013-12-16 20:37:00,
2013-12-16 15:42:00,25.2,9.1,29.76,West,270,0.0,7.2,50,0.00,,,0.14,WUHU21623XXSP,2013-12-16 20:42:00,
2013-12-16 15:47:00,25.0,8.9,29.77,West,270,0.0,7.2,50,0.00,,,0.14,WUHU21623XXSP,2013-12-16 20:47:00,
2013-12-16 15:52:00,24.6,8.6,29.77,West,270,0.0,0.0,50,0.00,,,0.14,WUHU21623XXSP,2013-12-16 20:52:00,
2013-12-16 15:57:00,24.6,9.0,29.78,WNW,292,0.0,0.0,51,0.00,,,0.14,WUHU21623XXSP,2013-12-16 20:57:00,
2013-12-16 16:02:00,24.4,8.5,29.78,WSW,247,0.0,0.0,50,0.00,,,0.14,WUHU21623XXSP,2013-12-16 21:02:00,
2013-12-16 16:07:00,24.1,8.1,29.78,West,270,0.0,0.0,50,0.00,,,0.14,WUHU21623XXSP,2013-12-16 21:07:00,
2013-12-16 16:12:00,23.9,8.0,29.78,WNW,292,0.0,8.3,50,0.00,,,0.14,WUHU21623XXSP,2013-12-16 21:12:00,
2013-12-16 16:17:00,23.7,7.8,29.79,WNW,292,4.3,8.3,50,0.00,,,0.14,WUHU21623XXSP,2013-12-16 21:17:00,
2013-12-16 16:22:00,23.5,7.6,29.79,WNW,292,0.0,4.3,50,0.00,,,0.14,WUHU21623XXSP,2013-12-16 21:22:00,
2013-12-16 16:27:00,23.4,7.5,29.79,West,270,4.5,4.5,50,0.00,,,0.14,WUHU21623XXSP,2013-12-16 21:27:00,
2013-12-16 16:32:00,23.2,7.3,29.79,WSW,247,4.0,4.5,50,0.00,,,0.14,WUHU21623XXSP,2013-12-16 21:32:00,
2013-12-16 16:37:00,23.2,7.3,29.79,WSW,247,0.0,4.5,50,0.00,,,0.14,WUHU21623XXSP,2013-12-16 21:37:00,
2013-12-16 16:42:00,22.8,7.0,29.79,NNW,337,0.0,0.0,50,0.00,,,0.14,WUHU21623XXSP,2013-12-16 21:42:00,
2013-12-16 16:47:00,22.8,7.4,29.80,NNW,337,0.0,0.0,51,0.00,,,0.14,WUHU21623XXSP,2013-12-16 21:47:00,
2013-12-16 16:52:00,22.6,7.2,29.80,WNW,292,0.0,0.0,51,0.00,,,0.14,WUHU21623XXSP,2013-12-16 21:52:00,
2013-12-16 16:57:00,22.5,7.0,29.80,West,270,0.0,0.0,51,0.00,,,0.14,WUHU21623XXSP,2013-12-16 21:57:00,
2013-12-16 17:02:00,22.1,7.1,29.81,West,270,0.0,0.0,52,0.00,,,0.14,WUHU21623XXSP,2013-12-16 22:02:00,
2013-12-16 17:07:00,21.9,6.9,29.81,WNW,292,0.0,0.0,52,0.00,,,0.14,WUHU21623XXSP,2013-12-16 22:07:00,
2013-12-16 17:12:00,21.7,6.7,29.81,WNW,292,0.0,1.1,52,0.00,,,0.14,WUHU21623XXSP,2013-12-16 22:12:00,
2013-12-16 17:17:00,21.7,7.1,29.81,WNW,292,0.0,1.1,53,0.00,,,0.14,WUHU21623XXSP,2013-12-16 22:17:00,
2013-12-16 17:22:00,21.6,6.5,29.81,WNW,292,0.0,0.0,53,0.00,,,0.14,WUHU21623XXSP,2013-12-16 22:22:00,
2013-12-16 17:27:00,21.4,6.8,29.81,WNW,292,2.0,2.0,53,0.00,,,0.14,WUHU21623XXSP,2013-12-16 22:27:00,
2013-12-16 17:32:00,21.4,6.8,29.82,WNW,292,0.0,2.0,53,0.00,,,0.14,WUHU21623XXSP,2013-12-16 22:32:00,
2013-12-16 17:37:00,21.0,6.4,29.82,WNW,292,0.0,0.0,53,0.00,,,0.14,WUHU21623XXSP,2013-12-16 22:37:00,
2013-12-16 17:42:00,20.8,6.3,29.82,SW,225,0.0,0.0,53,0.00,,,0.14,WUHU21623XXSP,2013-12-16 22:42:00,
2013-12-16 17:47:00,20.8,6.3,29.82,WSW,247,0.0,0.0,53,0.00,,,0.14,WUHU21623XXSP,2013-12-16 22:47:00,
2013-12-16 17:52:00,20.5,6.3,29.82,WNW,292,0.0,0.0,54,0.00,,,0.14,WUHU21623XXSP,2013-12-16 22:52:00,
2013-12-16 17:57:00,20.3,6.2,29.83,West,270,1.8,1.8,54,0.00,,,0.14,WUHU21623XXSP,2013-12-16 22:57:00,
2013-12-16 18:02:00,20.3,6.2,29.83,WNW,292,0.0,1.8,54,0.00,,,0.14,WUHU21623XXSP,2013-12-16 23:02:00,
2013-12-16 18:07:00,20.3,6.2,29.83,WNW,292,0.0,0.0,54,0.00,,,0.14,WUHU21623XXSP,2013-12-16 23:07:00,
2013-12-16 18:12:00,20.3,6.2,29.83,WNW,292,0.0,0.0,54,0.00,,,0.14,WUHU21623XXSP,2013-12-16 23:12:00,
2013-12-16 18:17:00,20.1,6.0,29.84,WNW,292,0.0,0.0,54,0.00,,,0.14,WUHU21623XXSP,2013-12-16 23:17:00,
2013-12-16 18:22:00,19.9,5.8,29.84,WNW,292,0.0,0.0,54,0.00,,,0.14,WUHU21623XXSP,2013-12-16 23:22:00,
2013-12-16 18:27:00,19.6,5.9,29.84,WNW,292,0.0,0.0,55,0.00,,,0.14,WUHU21623XXSP,2013-12-16 23:27:00,
2013-12-16 18:32:00,19.2,5.6,29.84,WNW,292,0.0,0.0,55,0.00,,,0.14,WUHU21623XXSP,2013-12-16 23:32:00,
2013-12-16 18:37:00,18.9,5.2,29.84,WNW,292,0.0,0.0,55,0.00,,,0.14,WUHU21623XXSP,2013-12-16 23:37:00,
2013-12-16 18:42:00,18.3,5.1,29.84,WNW,292,0.0,0.0,56,0.00,,,0.14,WUHU21623XXSP,2013-12-16 23:42:00,
2013-12-16 18:47:00,18.3,5.1,29.84,WNW,292,0.0,0.0,56,0.00,,,0.14,WUHU21623XXSP,2013-12-16 23:47:00,
2013-12-16 18:52:00,18.3,5.5,29.85,WNW,292,0.0,0.0,57,0.00,,,0.14,WUHU21623XXSP,2013-12-16 23:52:00,
2013-12-16 18:57:00,18.3,5.5,29.86,WNW,292,0.0,0.0,57,0.00,,,0.14,WUHU21623XXSP,2013-12-16 23:57:00,
2013-12-16 19:02:00,18.3,5.5,29.85,WNW,292,0.0,1.3,57,0.00,,,0.14,WUHU21623XXSP,2013-12-17 00:02:00,
2013-12-16 19:07:00,18.1,5.4,29.85,WNW,292,0.0,1.3,57,0.00,,,0.14,WUHU21623XXSP,2013-12-17 00:07:00,
2013-12-16 19:12:00,18.3,5.9,29.86,NW,315,0.0,2.7,58,0.00,,,0.14,WUHU21623XXSP,2013-12-17 00:12:00,
2013-12-16 19:17:00,18.3,5.9,29.86,NW,315,0.0,2.7,58,0.00,,,0.14,WUHU21623XXSP,2013-12-17 00:17:00,
2013-12-16 19:22:00,18.3,5.9,29.86,SW,225,0.0,0.0,58,0.00,,,0.14,WUHU21623XXSP,2013-12-17 00:22:00,
2013-12-16 19:27:00,18.7,6.3,29.87,West,270,0.0,3.1,58,0.00,,,0.14,WUHU21623XXSP,2013-12-17 00:27:00,
2013-12-16 19:32:00,19.0,6.6,29.87,West,270,0.0,3.1,58,0.00,,,0.14,WUHU21623XXSP,2013-12-17 00:32:00,
2013-12-16 19:37:00,19.2,6.3,29.88,West,270,0.0,0.0,57,0.00,,,0.14,WUHU21623XXSP,2013-12-17 00:37:00,
2013-12-16 19:42:00,19.2,6.3,29.88,West,270,0.0,0.0,57,0.00,,,0.14,WUHU21623XXSP,2013-12-17 00:42:00,
2013-12-16 19:47:00,18.9,6.2,29.87,West,270,0.0,0.0,57,0.00,,,0.14,WUHU21623XXSP,2013-12-17 00:47:00,
2013-12-16 19:52:00,18.5,5.7,29.88,West,270,0.0,0.0,57,0.00,,,0.14,WUHU21623XXSP,2013-12-17 00:52:00,
2013-12-16 19:57:00,18.1,5.8,29.88,West,270,0.0,0.0,58,0.00,,,0.14,WUHU21623XXSP,2013-12-17 00:57:00,
2013-12-16 20:02:00,18.0,5.6,29.88,West,270,0.0,0.0,58,0.00,,,0.14,WUHU21623XXSP,2013-12-17 01:02:00,
2013-12-16 20:07:00,17.4,5.1,29.88,West,270,0.0,0.0,58,0.00,,,0.14,WUHU21623XXSP,2013-12-17 01:07:00,
2013-12-16 20:12:00,16.9,4.6,29.88,West,270,0.0,0.0,58,0.00,,,0.14,WUHU21623XXSP,2013-12-17 01:12:00,
2013-12-16 20:17:00,16.9,4.6,29.88,West,270,0.0,0.0,58,0.00,,,0.14,WUHU21623XXSP,2013-12-17 01:17:00,
2013-12-16 20:22:00,16.9,4.6,29.89,West,270,0.0,0.0,58,0.00,,,0.14,WUHU21623XXSP,2013-12-17 01:22:00,
2013-12-16 20:25:00,16.9,5.0,29.89,West,270,0.0,0.0,59,0.00,,,0.14,WUHU21623XXSP,2013-12-17 01:25:00,
2013-12-16 20:30:00,16.9,5.0,29.89,West,270,0.0,0.0,59,0.00,,,0.14,WUHU21623XXSP,2013-12-17 01:30:00,
2013-12-16 20:35:00,16.9,5.4,29.89,West,270,0.0,0.0,60,0.00,,,0.14,WUHU21623XXSP,2013-12-17 01:35:00,
2013-12-16 20:40:00,17.2,5.7,29.89,West,270,0.0,0.0,60,0.00,,,0.14,WUHU21623XXSP,2013-12-17 01:40:00,
2013-12-16 20:45:00,17.2,6.1,29.89,West,270,0.0,0.0,61,0.00,,,0.14,WUHU21623XXSP,2013-12-17 01:45:00,
2013-12-16 20:50:00,16.9,5.4,29.89,West,270,0.0,0.0,60,0.00,,,0.14,WUHU21623XXSP,2013-12-17 01:50:00,
2013-12-16 20:55:00,16.7,5.2,29.89,West,270,0.0,0.0,60,0.00,,,0.14,WUHU21623XXSP,2013-12-17 01:55:00,
2013-12-16 21:00:00,16.3,4.8,29.89,West,270,0.0,0.0,60,0.00,,,0.14,WUHU21623XXSP,2013-12-17 02:00:00,
2013-12-16 21:05:00,16.2,4.6,29.89,West,270,0.0,0.0,60,0.00,,,0.14,WUHU21623XXSP,2013-12-17 02:05:00,
2013-12-16 21:10:00,16.3,5.2,29.90,West,270,0.0,0.0,61,0.00,,,0.14,WUHU21623XXSP,2013-12-17 02:10:00,
2013-12-16 21:15:00,16.5,5.3,29.90,West,270,0.0,0.0,61,0.00,,,0.14,WUHU21623XXSP,2013-12-17 02:15:00,
2013-12-16 21:20:00,16.5,5.3,29.91,WNW,292,0.0,0.0,61,0.00,,,0.14,WUHU21623XXSP,2013-12-17 02:20:00,
2013-12-16 21:25:00,16.5,5.3,29.91,WNW,292,0.0,0.0,61,0.00,,,0.14,WUHU21623XXSP,2013-12-17 02:25:00,
2013-12-16 21:30:00,16.3,5.2,29.91,WNW,292,0.0,0.0,61,0.00,,,0.14,WUHU21623XXSP,2013-12-17 02:30:00,
2013-12-16 21:35:00,15.8,4.6,29.91,WNW,292,0.0,0.0,61,0.00,,,0.14,WUHU21623XXSP,2013-12-17 02:35:00,
2013-12-16 21:40:00,15.6,4.5,29.91,WNW,292,0.0,0.0,61,0.00,,,0.14,WUHU21623XXSP,2013-12-17 02:40:00,
2013-12-16 21:45:00,15.6,4.8,29.91,WNW,292,0.0,0.0,62,0.00,,,0.14,WUHU21623XXSP,2013-12-17 02:45:00,
2013-12-16 21:50:00,16.0,5.1,29.91,WNW,292,0.0,0.0,62,0.00,,,0.14,WUHU21623XXSP,2013-12-17 02:50:00,
2013-12-16 21:55:00,15.8,5.0,29.91,WNW,292,0.0,0.0,62,0.00,,,0.14,WUHU21623XXSP,2013-12-17 02:55:00,
2013-12-16 22:00:00,15.8,5.1,29.91,WNW,292,0.0,0.0,62,0.00,,,0.14,WUHU21623XXSP,2013-12-17 03:00:00,
2013-12-16 22:05:00,15.6,4.8,29.91,WNW,292,0.0,0.0,62,0.00,,,0.14,WUHU21623XXSP,2013-12-17 03:05:00,
2013-12-16 22:10:00,15.4,4.6,29.91,WNW,292,0.0,0.0,62,0.00,,,0.14,WUHU21623XXSP,2013-12-17 03:10:00,
2013-12-16 22:15:00,15.1,4.3,29.91,WNW,292,0.0,0.0,62,0.00,,,0.14,WUHU21623XXSP,2013-12-17 03:15:00,
2013-12-16 22:20:00,14.7,4.0,29.91,WNW,292,0.0,0.0,62,0.00,,,0.14,WUHU21623XXSP,2013-12-17 03:20:00,
2013-12-16 22:25:00,14.4,4.0,29.91,WNW,292,0.0,0.0,63,0.00,,,0.14,WUHU21623XXSP,2013-12-17 03:25:00,
2013-12-16 22:30:00,14.2,3.8,29.91,WNW,292,0.0,0.0,63,0.00,,,0.14,WUHU21623XXSP,2013-12-17 03:30:00,
2013-12-16 22:35:00,13.8,3.5,29.92,WNW,292,0.0,0.0,63,0.00,,,0.14,WUHU21623XXSP,2013-12-17 03:35:00,
2013-12-16 22:40:00,13.3,3.0,29.92,WNW,292,0.0,0.0,63,0.00,,,0.14,WUHU21623XXSP,2013-12-17 03:40:00,
2013-12-16 22:45:00,12.9,2.6,29.92,WNW,292,0.0,0.0,63,0.00,,,0.14,WUHU21623XXSP,2013-12-17 03:45:00,
2013-12-16 22:50:00,12.4,2.1,29.92,WNW,292,0.0,0.0,63,0.00,,,0.14,WUHU21623XXSP,2013-12-17 03:50:00,
2013-12-16 22:55:00,12.0,1.7,29.92,WNW,292,0.0,0.0,63,0.00,,,0.14,WUHU21623XXSP,2013-12-17 03:55:00,
2013-12-16 23:00:00,11.8,1.5,29.92,WNW,292,0.0,0.0,63,0.00,,,0.14,WUHU21623XXSP,2013-12-17 04:00:00,
2013-12-16 23:05:00,11.1,1.2,29.92,WNW,292,0.0,0.0,64,0.00,,,0.14,WUHU21623XXSP,2013-12-17 04:05:00,
2013-12-16 23:10:00,10.8,0.9,29.93,WNW,292,0.0,0.0,64,0.00,,,0.14,WUHU21623XXSP,2013-12-17 04:10:00,
2013-12-16 23:15:00,10.6,0.7,29.93,WNW,292,0.0,0.0,64,0.00,,,0.14,WUHU21623XXSP,2013-12-17 04:15:00,
2013-12-16 23:20:00,10.0,0.2,29.93,WNW,292,0.0,0.0,64,0.00,,,0.14,WUHU21623XXSP,2013-12-17 04:20:00,
2013-12-16 23:25:00,9.7,-0.2,29.93,WNW,292,0.0,0.0,64,0.00,,,0.14,WUHU21623XXSP,2013-12-17 04:25:00,
2013-12-16 23:30:00,9.7,0.2,29.93,WNW,292,0.0,0.0,65,0.00,,,0.14,WUHU21623XXSP,2013-12-17 04:30:00,
2013-12-16 23:35:00,9.3,-0.2,29.93,WNW,292,0.0,0.0,65,0.00,,,0.14,WUHU21623XXSP,2013-12-17 04:35:00,
2013-12-16 23:40:00,9.0,-0.5,29.93,WNW,292,0.0,0.0,65,0.00,,,0.14,WUHU21623XXSP,2013-12-17 04:40:00,
2013-12-16 23:45:00,8.8,-0.7,29.93,WNW,292,0.0,0.0,65,0.00,,,0.14,WUHU21623XXSP,2013-12-17 04:45:00,
2013-12-16 23:50:00,8.4,-0.7,29.92,WNW,292,0.0,0.0,66,0.00,,,0.14,WUHU21623XXSP,2013-12-17 04:50:00,
2013-12-16 23:55:00,8.4,-0.7,29.93,WNW,292,0.0,0.0,66,0.00,,,0.14,WUHU21623XXSP,2013-12-17 04:55:00,